Time;durP1;ratioP1;P1;durP2;ratioP2;P2;SDS_P1;SDS_P2;PMS_P1;PMS_P2;Temp;Humidity;BMP_temperature;BMP_pressure;BME280_temperature;BME280_humidity;BME280_pressure;Samples;Min_cycle;Max_cycle;Signal;HPM_P1;HPM_P2
2023/08/07 00:00:04;;;;;;;1.30;1.17;;;;;;;15.23;100.00;99601.81;5016557;28;20188;-77
2023/08/07 00:02:29;;;;;;;27.97;2.87;;;;;;;15.20;100.00;99605.28;5016869;28;20665;-77
2023/08/07 00:04:55;;;;;;;1.80;1.37;;;;;;;15.24;100.00;99608.13;5016950;28;20215;-76
2023/08/07 00:07:20;;;;;;;2.03;1.83;;;;;;;15.19;100.00;99606.47;5016695;28;20177;-77
2023/08/07 00:09:45;;;;;;;1.00;1.00;;;;;;;15.20;100.00;99616.31;5017632;28;20195;-77
2023/08/07 00:12:11;;;;;;;1.00;0.97;;;;;;;15.16;100.00;99615.41;5014591;28;20633;-77
2023/08/07 00:14:36;;;;;;;1.53;1.43;;;;;;;15.27;100.00;99623.88;5014236;28;20227;-78
2023/08/07 00:17:02;;;;;;;2.50;2.30;;;;;;;15.20;100.00;99616.31;5015912;28;20188;-78
2023/08/07 00:19:27;;;;;;;5.93;2.07;;;;;;;15.26;100.00;99631.34;5016686;28;20192;-79
2023/08/07 00:21:53;;;;;;;0.37;0.37;;;;;;;15.31;100.00;99625.53;5016450;28;20196;-78
2023/08/07 00:24:18;;;;;;;1.70;1.60;;;;;;;15.32;100.00;99627.13;5020931;28;20239;-79
2023/08/07 00:26:43;;;;;;;3.93;1.77;;;;;;;15.27;100.00;99626.66;5021631;28;20184;-79
2023/08/07 00:29:09;;;;;;;3.50;3.30;;;;;;;15.29;100.00;99630.63;5021764;28;20582;-78
2023/08/07 00:31:34;;;;;;;1.33;1.23;;;;;;;15.45;100.00;99634.09;5021269;28;20172;-78
2023/08/07 00:33:59;;;;;;;6.23;0.83;;;;;;;15.44;100.00;99640.75;5021388;28;20647;-77
2023/08/07 00:36:28;;;;;;;1.67;1.57;;;;;;;15.46;100.00;99641.19;5021150;28;20555;-77
2023/08/07 00:38:53;;;;;;;5.67;1.80;;;;;;;15.48;100.00;99640.84;5020186;28;20646;-80
2023/08/07 00:41:20;;;;;;;2.00;1.90;;;;;;;15.45;100.00;99647.84;5018959;28;20192;-78
2023/08/07 00:43:45;;;;;;;1.87;1.67;;;;;;;15.44;100.00;99640.75;5018578;28;20196;-79
2023/08/07 00:46:11;;;;;;;0.87;0.87;;;;;;;15.38;100.00;99633.97;5034437;28;20207;-79
2023/08/07 00:48:36;;;;;;;2.63;2.43;;;;;;;15.43;100.00;99639.16;5018608;28;20185;-78
2023/08/07 00:51:03;;;;;;;0.37;0.37;;;;;;;15.44;100.00;99638.00;5018974;28;20195;-79
2023/08/07 00:53:28;;;;;;;0.90;0.90;;;;;;;15.37;100.00;99637.88;5016978;28;20215;-78
2023/08/07 00:55:54;;;;;;;1.13;1.13;;;;;;;15.44;100.00;99634.44;5018538;28;20200;-77
2023/08/07 00:58:19;;;;;;;1.70;1.60;;;;;;;15.38;100.00;99636.72;5018560;28;20267;-78
2023/08/07 01:00:45;;;;;;;2.03;1.93;;;;;;;15.35;100.00;99642.16;5018670;28;20211;-77
2023/08/07 01:03:13;;;;;;;0.67;0.67;;;;;;;15.46;100.00;99641.19;5018628;28;20231;-78
2023/08/07 01:05:39;;;;;;;0.20;0.20;;;;;;;15.36;100.00;99636.28;5018920;28;20201;-78
2023/08/07 01:08:04;;;;;;;0.77;0.77;;;;;;;15.44;100.00;99640.75;5018765;28;20187;-77
2023/08/07 01:10:44;;;;;;;0.80;0.80;;;;;;;15.42;100.00;99640.31;5019107;28;20180;-77
2023/08/07 01:13:37;;;;;;;3.73;3.43;;;;;;;15.37;100.00;99646.13;5012053;28;20198;-78
2023/08/07 01:16:09;;;;;;;2.10;1.80;;;;;;;15.34;100.00;99638.59;4997999;28;20313;-78
2023/08/07 01:18:36;;;;;;;9.23;2.47;;;;;;;15.30;100.00;99643.22;5007238;28;20180;-78
2023/08/07 01:21:03;;;;;;;0.83;0.83;;;;;;;15.16;100.00;99640.19;5016671;28;20185;-78
2023/08/07 01:23:28;;;;;;;3.00;2.80;;;;;;;15.01;100.00;99641.03;5015866;28;20188;-79
2023/08/07 01:25:54;;;;;;;1.30;1.20;;;;;;;15.05;100.00;99650.19;5018078;28;20274;-79
2023/08/07 01:28:28;;;;;;;2.00;1.90;;;;;;;15.06;100.00;99638.03;5021616;28;20230;-79
2023/08/07 01:30:58;;;;;;;1.70;1.60;;;;;;;15.02;100.00;99629.66;5026715;28;20271;-79
2023/08/07 01:33:32;;;;;;;3.07;1.53;;;;;;;15.08;100.00;99646.72;5027736;28;20532;-79
2023/08/07 01:36:05;;;;;;;1.10;1.10;;;;;;;15.06;100.00;99638.03;5027231;28;20219;-79
2023/08/07 01:38:31;;;;;;;2.90;2.73;;;;;;;14.97;100.00;99634.66;5028184;28;20180;-80
2023/08/07 01:40:58;;;;;;;1.63;1.50;;;;;;;15.01;100.00;99644.59;5027633;28;20181;-79
2023/08/07 01:43:23;;;;;;;1.73;1.00;;;;;;;15.08;100.00;99636.50;5025505;28;20252;-79
2023/08/07 01:45:49;;;;;;;3.13;2.83;;;;;;;15.07;100.00;99631.38;5026180;28;20234;-79
2023/08/07 01:48:14;;;;;;;2.23;2.13;;;;;;;15.11;100.00;99634.97;5026646;28;20193;-79
2023/08/07 01:50:39;;;;;;;1.43;0.97;;;;;;;15.04;100.00;99643.84;5026581;28;20222;-78
2023/08/07 01:53:05;;;;;;;1.87;1.70;;;;;;;14.95;100.00;99639.75;5027865;28;20220;-79
2023/08/07 01:55:31;;;;;;;1.20;1.13;;;;;;;14.95;100.00;99640.53;5028010;28;20201;-79
2023/08/07 01:57:56;;;;;;;2.03;1.63;;;;;;;14.92;100.00;99640.47;5028083;28;20180;-79
2023/08/07 02:00:22;;;;;;;2.30;1.63;;;;;;;14.90;100.00;99638.09;5028080;28;20185;-79
2023/08/07 02:02:47;;;;;;;1.23;1.20;;;;;;;14.86;100.00;99628.94;5026845;28;20192;-79
2023/08/07 02:05:13;;;;;;;2.33;1.90;;;;;;;14.88;100.00;99632.13;5027100;28;20227;-79
2023/08/07 02:07:39;;;;;;;3.07;2.47;;;;;;;14.94;100.00;99646.41;5028024;28;20208;-79
2023/08/07 02:10:04;;;;;;;0.87;0.87;;;;;;;15.04;100.00;99651.31;5028216;28;20180;-79
2023/08/07 02:12:32;;;;;;;2.20;0.67;;;;;;;14.97;100.00;99640.19;5027671;28;20238;-79
2023/08/07 02:14:58;;;;;;;2.10;1.90;;;;;;;14.96;100.00;99639.38;5026737;28;20655;-79
2023/08/07 02:17:25;;;;;;;1.60;1.50;;;;;;;14.88;100.00;99643.13;5027272;28;20556;-79
2023/08/07 02:19:50;;;;;;;1.43;1.37;;;;;;;14.90;100.00;99635.34;5028163;28;20674;-79
2023/08/07 02:22:16;;;;;;;5.13;1.30;;;;;;;14.81;100.00;99630.03;5027284;28;20246;-79
2023/08/07 02:24:41;;;;;;;1.70;1.57;;;;;;;14.78;100.00;99622.50;5027725;28;20239;-79
2023/08/07 02:27:07;;;;;;;1.93;1.83;;;;;;;14.77;100.00;99623.66;5027047;28;20717;-78
2023/08/07 02:29:34;;;;;;;2.17;2.07;;;;;;;14.80;100.00;99624.88;5027396;28;20184;-79
2023/08/07 02:32:01;;;;;;;7.50;1.87;;;;;;;14.67;100.00;99624.22;5028202;28;20172;-78
2023/08/07 02:34:27;;;;;;;1.17;1.13;;;;;;;14.75;100.00;99625.94;5027725;28;20201;-79
2023/08/07 02:36:52;;;;;;;1.40;1.40;;;;;;;14.72;100.00;99623.91;5027916;28;20244;-79
2023/08/07 02:39:17;;;;;;;1.03;0.97;;;;;;;14.73;100.00;99633.75;5028016;28;20244;-79
2023/08/07 02:41:43;;;;;;;1.17;1.17;;;;;;;14.63;100.00;99615.09;5028331;28;20219;-79
2023/08/07 02:44:08;;;;;;;1.57;1.47;;;;;;;14.64;100.00;99624.94;5027883;28;20200;-79
2023/08/07 02:46:35;;;;;;;2.43;2.33;;;;;;;14.65;100.00;99623.78;5026961;28;20184;-78
2023/08/07 02:49:01;;;;;;;4.37;2.67;;;;;;;14.55;100.00;99624.31;5027989;28;20641;-78
2023/08/07 02:51:26;;;;;;;13.73;1.90;;;;;;;14.56;100.00;99625.91;5027885;28;20234;-78
2023/08/07 02:53:51;;;;;;;5.03;2.73;;;;;;;14.53;100.00;99619.19;5026857;28;20191;-78
2023/08/07 02:56:17;;;;;;;2.97;2.83;;;;;;;14.50;100.00;99625.41;5027188;28;20287;-79
2023/08/07 02:58:42;;;;;;;7.93;4.80;;;;;;;14.49;100.00;99620.25;5027981;28;20204;-79
2023/08/07 03:01:08;;;;;;;3.20;3.00;;;;;;;14.54;100.00;99630.97;5028200;28;20188;-79
2023/08/07 03:03:33;;;;;;;4.20;2.77;;;;;;;14.52;100.00;99625.84;5027432;28;20550;-79
2023/08/07 03:05:58;;;;;;;8.63;2.23;;;;;;;14.48;100.00;99618.69;5027869;28;20260;-77
2023/08/07 03:08:24;;;;;;;18.83;3.63;;;;;;;14.48;100.00;99618.69;5026156;28;20194;-79
2023/08/07 03:10:52;;;;;;;3.07;2.87;;;;;;;14.48;100.00;99624.16;5022269;28;20180;-77
2023/08/07 03:13:17;;;;;;;3.10;2.90;;;;;;;14.44;100.00;99629.56;5019454;28;20187;-77
2023/08/07 03:15:42;;;;;;;2.03;1.93;;;;;;;14.37;100.00;99628.59;5019528;28;20200;-77
2023/08/07 03:18:07;;;;;;;1.67;1.57;;;;;;;14.42;100.00;99636.53;5019814;28;20569;-77
2023/08/07 03:20:36;;;;;;;1.70;1.60;;;;;;;14.34;100.00;99641.09;5019424;28;20191;-78
2023/08/07 03:23:01;;;;;;;1.40;1.30;;;;;;;14.30;100.00;99632.75;5019995;28;20191;-77
2023/08/07 03:25:26;;;;;;;4.70;2.57;;;;;;;14.36;100.00;99638.78;5019088;28;20218;-77
2023/08/07 03:27:51;;;;;;;1.50;1.40;;;;;;;14.41;100.00;99646.75;5019846;28;20176;-78
2023/08/07 03:30:17;;;;;;;1.83;1.73;;;;;;;14.36;100.00;99636.03;5019759;28;20279;-77
2023/08/07 03:32:42;;;;;;;3.37;2.00;;;;;;;14.33;100.00;99641.44;5018175;28;20643;-77
2023/08/07 03:35:07;;;;;;;1.67;1.07;;;;;;;14.37;100.00;99639.56;5020269;28;20223;-78
2023/08/07 03:37:33;;;;;;;3.73;3.43;;;;;;;14.40;100.00;99641.59;5027566;28;20553;-79
2023/08/07 03:39:58;;;;;;;1.60;1.50;;;;;;;14.45;100.00;99641.34;5026533;28;20200;-78
2023/08/07 03:42:23;;;;;;;2.40;2.23;;;;;;;14.48;100.00;99643.41;5026663;28;20227;-78
2023/08/07 03:44:49;;;;;;;2.13;2.03;;;;;;;14.39;100.00;99651.81;5026249;28;20224;-78
2023/08/07 03:47:14;;;;;;;0.30;0.30;;;;;;;14.41;100.00;99654.19;5024974;28;20191;-78
2023/08/07 03:49:39;;;;;;;8.40;2.47;;;;;;;14.39;100.00;99654.56;5026211;28;20184;-78
2023/08/07 03:52:05;;;;;;;4.53;1.80;;;;;;;14.44;100.00;99667.25;5025768;28;20191;-78
2023/08/07 03:54:31;;;;;;;1.67;1.57;;;;;;;14.49;100.00;99664.25;5026207;28;20211;-77
2023/08/07 03:56:56;;;;;;;1.23;1.23;;;;;;;14.50;100.00;99663.09;5025857;28;20184;-78
2023/08/07 03:59:22;;;;;;;1.10;1.00;;;;;;;14.58;100.00;99670.34;5024646;28;20247;-77
2023/08/07 04:01:47;;;;;;;0.70;0.70;;;;;;;14.69;100.00;99657.63;5025891;28;20200;-78
2023/08/07 04:04:12;;;;;;;1.83;1.73;;;;;;;14.62;100.00;99657.50;5025150;28;20267;-78
2023/08/07 04:06:38;;;;;;;0.87;0.73;;;;;;;14.60;100.00;99654.28;5024478;28;20195;-78
2023/08/07 04:09:03;;;;;;;0.87;0.87;;;;;;;14.58;100.00;99660.13;5026395;28;20187;-78
2023/08/07 04:11:29;;;;;;;2.27;2.07;;;;;;;14.60;100.00;99665.28;5026480;28;20588;-77
2023/08/07 04:13:54;;;;;;;7.53;3.60;;;;;;;14.60;100.00;99668.03;5025350;28;20212;-78
2023/08/07 04:16:20;;;;;;;3.37;1.97;;;;;;;14.61;100.00;99672.38;5025881;28;20204;-78
2023/08/07 04:18:45;;;;;;;4.73;4.37;;;;;;;14.59;100.00;99667.22;5026725;28;20180;-78
2023/08/07 04:21:10;;;;;;;2.20;2.00;;;;;;;14.59;100.00;99667.22;5024890;28;20200;-78
2023/08/07 04:23:36;;;;;;;3.50;3.20;;;;;;;14.65;100.00;99664.22;5025724;28;20188;-78
2023/08/07 04:26:01;;;;;;;2.63;2.50;;;;;;;14.72;100.00;99667.91;5025975;28;20211;-78
2023/08/07 04:28:29;;;;;;;4.40;3.27;;;;;;;14.70;100.00;99669.44;5026557;28;20204;-77
2023/08/07 04:30:55;;;;;;;3.40;3.10;;;;;;;14.58;100.00;99673.88;5026028;28;20257;-78
2023/08/07 04:33:20;;;;;;;2.37;2.17;;;;;;;14.67;100.00;99678.41;5026244;28;20184;-78
2023/08/07 04:35:46;;;;;;;3.70;3.40;;;;;;;14.63;100.00;99677.53;5025926;28;20223;-78
2023/08/07 04:38:13;;;;;;;4.77;2.13;;;;;;;14.64;100.00;99676.38;5026001;28;20192;-78
2023/08/07 04:40:48;;;;;;;4.23;2.20;;;;;;;14.69;100.00;99690.63;5026467;28;20323;-78
2023/08/07 04:43:15;;;;;;;11.07;1.77;;;;;;;14.67;100.00;99681.94;5025393;28;20227;-78
2023/08/07 04:45:41;;;;;;;1.30;1.20;;;;;;;14.70;100.00;99688.69;5025535;28;20262;-78
2023/08/07 04:48:07;;;;;;;0.90;0.90;;;;;;;14.78;100.00;99691.25;5025869;28;20184;-78
2023/08/07 04:50:33;;;;;;;2.20;2.07;;;;;;;14.79;100.00;99687.34;5026063;28;20181;-78
2023/08/07 04:52:58;;;;;;;2.03;1.77;;;;;;;14.78;100.00;99679.44;5024523;28;20214;-77
2023/08/07 04:55:23;;;;;;;1.17;1.13;;;;;;;14.82;100.00;99683.06;5024935;28;20208;-79
2023/08/07 04:57:50;;;;;;;1.87;1.77;;;;;;;14.87;100.00;99685.53;5026664;28;20256;-78
2023/08/07 05:00:17;;;;;;;2.30;0.97;;;;;;;14.92;100.00;99685.28;5024947;28;20256;-78
2023/08/07 05:02:42;;;;;;;0.83;0.83;;;;;;;-144.99;100.00;67352.69;5024736;28;20291;-78
2023/08/07 05:05:09;;;;;;;0.73;0.73;;;;;;;-144.99;100.00;67352.69;5024216;28;20235;-78
2023/08/07 05:07:34;;;;;;;1.03;1.03;;;;;;;-144.99;100.00;67352.69;5025195;28;20291;-79
2023/08/07 05:10:02;;;;;;;1.17;0.73;;;;;;;-144.99;100.00;67352.69;5027204;28;20185;-78
2023/08/07 05:12:27;;;;;;;2.00;1.27;;;;;;;-144.99;100.00;67352.69;5028145;28;20179;-78
2023/08/07 05:14:53;;;;;;;0.60;0.60;;;;;;;-144.99;100.00;67352.69;5028955;28;20612;-78
2023/08/07 05:17:18;;;;;;;0.53;0.30;;;;;;;-144.99;100.00;67352.69;5028362;28;20206;-78
2023/08/07 05:19:43;;;;;;;1.20;1.20;;;;;;;-144.99;100.00;67352.69;5028752;28;20180;-78
2023/08/07 05:22:08;;;;;;;3.00;1.80;;;;;;;-144.99;100.00;67352.69;5027131;28;20196;-78
2023/08/07 05:24:38;;;;;;;1.17;1.10;;;;;;;-144.99;100.00;67352.69;5028734;28;20267;-78
2023/08/07 05:27:08;;;;;;;3.10;2.90;;;;;;;-144.99;100.00;67352.69;5028653;28;20204;-78
2023/08/07 05:29:34;;;;;;;1.17;1.17;;;;;;;-144.99;100.00;67352.69;5028818;28;20176;-77
2023/08/07 05:31:59;;;;;;;1.90;1.80;;;;;;;-144.99;100.00;67352.69;5026696;28;20213;-77
2023/08/07 05:34:28;;;;;;;4.30;0.73;;;;;;;-144.99;100.00;67352.69;5028350;28;20208;-78
2023/08/07 05:36:53;;;;;;;1.67;1.57;;;;;;;-144.99;100.00;67352.69;5028644;28;20184;-78
2023/08/07 05:39:18;;;;;;;2.83;2.00;;;;;;;-144.99;100.00;67352.69;5027272;28;20215;-78
2023/08/07 05:41:44;;;;;;;3.20;2.90;;;;;;;-144.99;100.00;67352.69;5028260;28;20568;-77
2023/08/07 05:44:09;;;;;;;2.03;1.80;;;;;;;-144.99;100.00;67352.69;5026715;28;20200;-78
2023/08/07 05:46:34;;;;;;;3.00;2.70;;;;;;;-144.99;100.00;67352.69;5026251;28;20260;-77
2023/08/07 05:49:00;;;;;;;2.00;1.90;;;;;;;-144.99;100.00;67352.69;5026639;28;20199;-77
2023/08/07 05:51:25;;;;;;;2.47;2.37;;;;;;;-144.99;100.00;67352.69;5023289;28;20189;-77
2023/08/07 05:53:50;;;;;;;1.30;1.07;;;;;;;-144.99;100.00;67352.69;5024430;28;20180;-77
2023/08/07 05:56:17;;;;;;;1.73;1.63;;;;;;;-144.99;100.00;67352.69;5022007;28;20270;-78
2023/08/07 05:58:43;;;;;;;2.80;2.33;;;;;;;-144.99;100.00;67352.69;5023348;28;20610;-76
2023/08/07 06:01:08;;;;;;;2.10;2.00;;;;;;;-144.99;100.00;67352.69;5023053;28;20180;-77
2023/08/07 06:03:34;;;;;;;0.73;0.73;;;;;;;-144.99;100.00;67352.69;5023688;28;20181;-77
2023/08/07 06:05:59;;;;;;;1.87;1.77;;;;;;;-144.99;100.00;67352.69;5023684;28;20220;-78
2023/08/07 06:08:25;;;;;;;11.03;1.87;;;;;;;-144.99;100.00;67352.69;5023343;28;20651;-76
2023/08/07 06:10:50;;;;;;;1.60;1.13;;;;;;;-144.99;100.00;67352.69;5024463;28;20550;-78
2023/08/07 06:13:15;;;;;;;1.57;1.47;;;;;;;-144.99;100.00;67352.69;5021839;28;20204;-77
2023/08/07 06:15:40;;;;;;;2.50;1.93;;;;;;;-144.99;100.00;67352.69;5022743;28;20211;-77
2023/08/07 06:18:06;;;;;;;0.80;0.80;;;;;;;-144.99;100.00;67352.69;5025189;28;20177;-78
2023/08/07 06:20:31;;;;;;;1.37;1.37;;;;;;;-144.99;100.00;67352.69;5025360;28;20180;-77
2023/08/07 06:22:56;;;;;;;2.40;0.90;;;;;;;-144.99;100.00;67352.69;5022172;28;20641;-77
2023/08/07 06:25:22;;;;;;;1.20;0.87;;;;;;;-144.99;100.00;67352.69;5023054;28;20208;-76
2023/08/07 06:27:47;;;;;;;3.23;1.20;;;;;;;-144.99;100.00;67352.69;5022514;28;20220;-78
2023/08/07 06:30:13;;;;;;;0.20;0.20;;;;;;;-144.99;100.00;67352.69;5023199;28;20490;-77
2023/08/07 06:32:39;;;;;;;1.37;0.70;;;;;;;-144.99;100.00;67352.69;5024378;28;20265;-77
2023/08/07 06:35:05;;;;;;;0.60;0.60;;;;;;;-144.99;100.00;67352.69;5024484;28;20258;-77
2023/08/07 06:37:30;;;;;;;0.73;0.73;;;;;;;-144.99;100.00;67352.69;5022453;28;20189;-77
2023/08/07 06:39:56;;;;;;;0.97;0.97;;;;;;;-144.99;100.00;67352.69;5022189;28;20253;-78
2023/08/07 06:42:21;;;;;;;1.30;1.30;;;;;;;-144.99;100.00;67352.69;5019314;28;20200;-78
2023/08/07 06:44:47;;;;;;;0.87;0.87;;;;;;;-144.99;100.00;67352.69;5022663;28;20220;-77
2023/08/07 06:47:12;;;;;;;1.03;0.63;;;;;;;-144.99;100.00;67352.69;5022690;28;20184;-77
2023/08/07 06:49:37;;;;;;;1.40;1.03;;;;;;;-144.99;100.00;67352.69;5020137;28;20217;-77
2023/08/07 06:52:03;;;;;;;0.70;0.70;;;;;;;-144.99;100.00;67352.69;5026036;28;20180;-76
2023/08/07 06:54:29;;;;;;;1.10;1.10;;;;;;;-144.99;100.00;67352.69;5024534;28;20267;-77
2023/08/07 06:56:54;;;;;;;0.03;0.03;;;;;;;-144.99;100.00;67352.69;5027910;28;20195;-78
2023/08/07 06:59:19;;;;;;;0.70;0.70;;;;;;;-144.99;100.00;67352.69;5026229;28;20234;-79
2023/08/07 07:01:45;;;;;;;0.97;0.83;;;;;;;-144.99;100.00;67352.69;5024924;28;20195;-76
2023/08/07 07:04:10;;;;;;;0.50;0.50;;;;;;;-144.99;100.00;67352.69;5027337;28;20235;-79
2023/08/07 07:06:37;;;;;;;1.70;1.30;;;;;;;-144.99;100.00;67352.69;5025021;28;20240;-77
2023/08/07 07:09:03;;;;;;;0.57;0.57;;;;;;;-144.99;100.00;67352.69;5025757;28;20188;-79
2023/08/07 07:11:28;;;;;;;1.67;1.13;;;;;;;-144.99;100.00;67352.69;5020738;28;20177;-77
2023/08/07 07:13:54;;;;;;;0.60;0.60;;;;;;;-144.99;100.00;67352.69;5024632;28;20645;-77
2023/08/07 07:16:21;;;;;;;1.73;1.40;;;;;;;-144.99;100.00;67352.69;5026100;28;20196;-77
2023/08/07 07:18:46;;;;;;;0.20;0.20;;;;;;;-144.99;100.00;67352.69;5027333;28;20204;-77
2023/08/07 07:21:12;;;;;;;0.63;0.60;;;;;;;-144.99;100.00;67352.69;5024482;28;20177;-78
2023/08/07 07:23:37;;;;;;;0.80;0.80;;;;;;;-144.99;100.00;67352.69;5021580;28;20185;-77
2023/08/07 07:26:02;;;;;;;1.20;1.10;;;;;;;-144.99;100.00;67352.69;5023422;28;20207;-77
2023/08/07 07:28:28;;;;;;;5.10;1.40;;;;;;;-144.99;100.00;67352.69;5022432;28;20195;-77
2023/08/07 07:30:53;;;;;;;1.50;0.83;;;;;;;-144.99;100.00;67352.69;5025079;28;20207;-79
2023/08/07 07:33:19;;;;;;;1.57;1.47;;;;;;;-144.99;100.00;67352.69;5025385;28;20247;-77
2023/08/07 07:35:44;;;;;;;1.53;1.40;;;;;;;-144.99;100.00;67352.69;5019580;28;20208;-77
2023/08/07 07:38:10;;;;;;;1.27;0.97;;;;;;;-144.99;100.00;67352.69;5022205;28;20196;-78
2023/08/07 07:40:36;;;;;;;2.23;1.33;;;;;;;-144.99;100.00;67352.69;5024775;28;20282;-77
2023/08/07 07:43:01;;;;;;;2.43;0.93;;;;;;;-144.99;100.00;67352.69;5023961;28;20259;-76
2023/08/07 07:45:27;;;;;;;1.50;0.47;;;;;;;-144.99;100.00;67352.69;5025519;28;20223;-77
2023/08/07 07:47:52;;;;;;;9.30;2.23;;;;;;;-144.99;100.00;67352.69;5026246;28;20185;-76
2023/08/07 07:50:30;;;;;;;1.07;0.77;;;;;;;-144.99;100.00;67352.69;5039857;22;20180;-81
2023/08/07 07:53:20;;;;;;;0.67;0.67;;;;;;;-144.99;100.00;67352.69;4978681;28;20622;-80
2023/08/07 07:56:00;;;;;;;0.93;0.93;;;;;;;-144.99;100.00;67352.69;4965084;28;20174;-80
2023/08/07 07:58:47;;;;;;;1.27;1.03;;;;;;;-144.99;100.00;67352.69;4965176;28;20600;-79
2023/08/07 08:01:19;;;;;;;0.40;0.40;;;;;;;-144.99;100.00;67352.69;4963897;28;20735;-79
2023/08/07 08:04:21;;;;;;;6.00;1.17;;;;;;;-144.99;100.00;67352.69;4971158;28;20260;-80
2023/08/07 08:07:42;;;;;;;0.10;0.10;;;;;;;-144.99;100.00;67352.69;4962021;28;20177;-80
2023/08/07 08:11:11;;;;;;;;;;;;;;;;;;;;;
2023/08/07 08:17:20;;;;;;;1.23;0.93;;;;;;;-144.99;100.00;67352.69;4955361;28;20288;-79
2023/08/07 08:20:32;;;;;;;20.77;1.73;;;;;;;-144.99;100.00;67352.69;4950922;29;20197;-80
2023/08/07 08:23:52;;;;;;;0.23;0.23;;;;;;;-144.99;100.00;67352.69;4953491;28;20213;-81
2023/08/07 08:30:01;;;;;;;4.03;1.37;;;;;;;-144.99;100.00;67352.69;4948400;28;20261;-80
2023/08/07 08:36:35;;;;;;;1.63;1.40;;;;;;;-144.99;100.00;67352.69;4913307;28;20192;-80
2023/08/07 08:39:07;;;;;;;1.10;0.90;;;;;;;-144.99;100.00;67352.69;4861347;29;20267;-80
2023/08/07 08:41:57;;;;;;;1.73;1.63;;;;;;;-144.99;100.00;67352.69;4870531;29;20215;-80
2023/08/07 08:45:12;;;;;;;1.40;1.17;;;;;;;-144.99;100.00;67352.69;4926971;28;20229;-80
2023/08/07 08:48:03;;;;;;;1.30;1.20;;;;;;;-144.99;100.00;67352.69;4982823;28;20217;-80
2023/08/07 08:50:58;;;;;;;7.73;1.53;;;;;;;-144.99;100.00;67352.69;4981716;28;20652;-80
2023/08/07 08:53:46;;;;;;;;;;;;;;;;;;;;;
2023/08/07 08:56:44;;;;;;;1.77;1.67;;;;;;;-144.99;100.00;67352.69;4975956;28;20200;-80
2023/08/07 09:02:01;;;;;;;1.20;0.73;;;;;;;-144.99;100.00;67352.69;4958394;28;20256;-79
2023/08/07 09:11:24;;;;;;;4.63;1.13;;;;;;;-144.99;100.00;67352.69;4962752;28;20232;-80
2023/08/07 09:18:12;;;;;;;;;;;;;;;;;;;;;
2023/08/07 09:21:28;;;;;;;7.33;2.50;;;;;;;-144.99;100.00;67352.69;4923413;28;20203;-80
2023/08/07 09:24:06;;;;;;;1.07;1.07;;;;;;;-144.99;100.00;67352.69;4956696;28;20203;-80
2023/08/07 09:26:53;;;;;;;0.73;0.73;;;;;;;-144.99;100.00;67352.69;4968104;28;20202;-80
2023/08/07 09:36:53;;;;;;;2.67;1.27;;;;;;;-144.99;100.00;67352.69;4958869;28;20233;-80
2023/08/07 09:39:24;;;;;;;2.00;1.13;;;;;;;-144.99;100.00;67352.69;4975592;28;20189;-82
2023/08/07 09:41:52;;;;;;;0.60;0.60;;;;;;;-144.99;100.00;67352.69;4989860;28;20200;-80
2023/08/07 09:44:17;;;;;;;6.60;1.23;;;;;;;-144.99;100.00;67352.69;4974781;28;20201;-81
2023/08/07 09:46:43;;;;;;;1.47;0.70;;;;;;;-144.99;100.00;67352.69;4974008;28;20185;-82
2023/08/07 09:49:09;;;;;;;0.60;0.03;;;;;;;-144.99;100.00;67352.69;4990573;28;20665;-81
2023/08/07 09:51:45;;;;;;;1.00;0.93;;;;;;;-144.99;100.00;67352.69;4975002;28;20192;-81
2023/08/07 09:54:11;;;;;;;1.13;1.03;;;;;;;-144.99;100.00;67352.69;4962085;28;20231;-81
2023/08/07 09:56:37;;;;;;;6.50;0.47;;;;;;;-144.99;100.00;67352.69;4962713;28;20201;-81
2023/08/07 09:59:04;;;;;;;0.93;0.47;;;;;;;-144.99;100.00;67352.69;4978808;28;20321;-80
2023/08/07 10:01:29;;;;;;;0.97;0.87;;;;;;;-144.99;100.00;67352.69;4962349;28;20612;-81
2023/08/07 10:03:54;;;;;;;3.20;0.93;;;;;;;-144.99;100.00;67352.69;4964537;28;20304;-81
2023/08/07 10:06:20;;;;;;;8.30;0.67;;;;;;;-144.99;100.00;67352.69;4984447;28;20591;-81
2023/08/07 10:08:45;;;;;;;0.53;0.40;;;;;;;-144.99;100.00;67352.69;4964972;28;20182;-81
2023/08/07 10:11:11;;;;;;;0.87;0.63;;;;;;;-144.99;100.00;67352.69;4966951;28;20182;-81
2023/08/07 10:13:37;;;;;;;0.80;0.70;;;;;;;-144.99;100.00;67352.69;4958495;28;20194;-81
2023/08/07 10:16:03;;;;;;;0.00;0.00;;;;;;;-144.99;100.00;67352.69;4965242;28;20592;-81
2023/08/07 10:18:28;;;;;;;0.47;0.47;;;;;;;-144.99;100.00;67352.69;4953609;28;20217;-81
2023/08/07 10:20:55;;;;;;;4.90;1.13;;;;;;;-144.99;100.00;67352.69;4969867;28;20331;-80
2023/08/07 10:23:21;;;;;;;1.70;0.63;;;;;;;-144.99;100.00;67352.69;4960195;28;20285;-81
2023/08/07 10:25:50;;;;;;;1.70;0.97;;;;;;;-144.99;100.00;67352.69;4972657;28;20605;-81
2023/08/07 10:28:18;;;;;;;1.40;0.83;;;;;;;-144.99;100.00;67352.69;4959141;28;20206;-81
2023/08/07 10:30:44;;;;;;;0.67;0.60;;;;;;;-144.99;100.00;67352.69;4981068;28;20220;-80
2023/08/07 10:33:12;;;;;;;0.77;0.77;;;;;;;-144.99;100.00;67352.69;4976126;28;20189;-81
2023/08/07 10:35:37;;;;;;;0.93;0.87;;;;;;;-144.99;100.00;67352.69;4985967;28;20285;-79
2023/08/07 10:38:08;;;;;;;2.50;0.33;;;;;;;-144.99;100.00;67352.69;4989334;28;20205;-80
2023/08/07 10:40:33;;;;;;;10.87;2.80;;;;;;;-144.99;100.00;67352.69;4989345;28;20182;-80
2023/08/07 10:43:11;;;;;;;16.03;0.93;;;;;;;-144.99;100.00;67352.69;4965471;28;20248;-80
2023/08/07 10:45:38;;;;;;;0.93;0.70;;;;;;;-144.99;100.00;67352.69;4965823;28;20213;-81
2023/08/07 10:48:07;;;;;;;1.50;0.40;;;;;;;-144.99;100.00;67352.69;4966019;28;20192;-81
2023/08/07 10:50:34;;;;;;;1.60;1.13;;;;;;;-144.99;100.00;67352.69;4965994;28;20217;-80
2023/08/07 10:53:01;;;;;;;1.40;0.60;;;;;;;-144.99;100.00;67352.69;4969974;28;20190;-81
2023/08/07 10:55:31;;;;;;;2.83;1.00;;;;;;;-144.99;100.00;67352.69;4984459;28;20237;-81
2023/08/07 10:57:56;;;;;;;0.70;0.57;;;;;;;-144.99;100.00;67352.69;4965912;28;20181;-81
2023/08/07 11:00:27;;;;;;;2.73;0.70;;;;;;;-144.99;100.00;67352.69;4988971;28;20703;-80
2023/08/07 11:02:52;;;;;;;4.43;1.40;;;;;;;-144.99;100.00;67352.69;4965257;28;20253;-81
2023/08/07 11:05:19;;;;;;;1.60;0.83;;;;;;;-144.99;100.00;67352.69;4973866;28;20214;-81
2023/08/07 11:07:45;;;;;;;0.70;0.50;;;;;;;-144.99;100.00;67352.69;4971164;28;20617;-80
2023/08/07 11:10:15;;;;;;;0.87;0.57;;;;;;;-144.99;100.00;67352.69;4966248;28;20187;-81
2023/08/07 11:12:41;;;;;;;2.90;0.73;;;;;;;-144.99;100.00;67352.69;4972990;28;20225;-80
2023/08/07 11:15:07;;;;;;;2.70;1.00;;;;;;;-144.99;100.00;67352.69;4988538;28;20231;-81
2023/08/07 11:17:32;;;;;;;6.37;1.23;;;;;;;-144.99;100.00;67352.69;4973690;28;20217;-80
2023/08/07 11:19:58;;;;;;;0.50;0.50;;;;;;;-144.99;100.00;67352.69;4985540;28;20273;-81
2023/08/07 11:22:24;;;;;;;0.10;0.10;;;;;;;-144.99;100.00;67352.69;4962694;28;20887;-81
2023/08/07 11:24:50;;;;;;;4.43;0.50;;;;;;;-144.99;100.00;67352.69;4975766;28;20661;-82
2023/08/07 11:27:15;;;;;;;1.73;1.10;;;;;;;-144.99;100.00;67352.69;4977472;28;20675;-81
2023/08/07 11:29:41;;;;;;;0.00;0.00;;;;;;;-144.99;100.00;67352.69;4975215;28;20182;-82
2023/08/07 11:32:07;;;;;;;0.53;0.53;;;;;;;-144.99;100.00;67352.69;4975193;28;20186;-82
2023/08/07 11:34:33;;;;;;;0.50;0.50;;;;;;;-144.99;100.00;67352.69;4968266;28;20203;-82
2023/08/07 11:36:59;;;;;;;9.10;0.43;;;;;;;-144.99;100.00;67352.69;4958217;28;20195;-82
2023/08/07 11:39:26;;;;;;;1.43;0.67;;;;;;;-144.99;100.00;67352.69;4989982;28;20566;-82
2023/08/07 11:41:52;;;;;;;3.00;1.30;;;;;;;-144.99;100.00;67352.69;4986474;28;20305;-82
2023/08/07 11:44:18;;;;;;;3.20;1.03;;;;;;;-144.99;100.00;67352.69;4988014;28;20700;-82
2023/08/07 11:46:43;;;;;;;2.77;0.63;;;;;;;-144.99;100.00;67352.69;4973589;28;20190;-82
2023/08/07 11:49:09;;;;;;;0.93;0.37;;;;;;;-144.99;100.00;67352.69;4977176;28;20182;-83
2023/08/07 11:51:35;;;;;;;0.67;0.50;;;;;;;-144.99;100.00;67352.69;4962150;28;20572;-82
2023/08/07 11:54:01;;;;;;;0.60;0.60;;;;;;;-144.99;100.00;67352.69;4959351;28;20221;-81
2023/08/07 11:56:27;;;;;;;9.07;1.03;;;;;;;-144.99;100.00;67352.69;4982565;28;20197;-82